Time;durP1;ratioP1;P1;durP2;ratioP2;P2;SDS_P1;SDS_P2;PMS_P1;PMS_P2;Temp;Humidity;BMP_temperature;BMP_pressure;BME280_temperature;BME280_humidity;BME280_pressure;Samples;Min_cycle;Max_cycle;Signal;HPM_P1;HPM_P2
2023/10/12 00:00:42;;;;;;;11.25;4.07;;;14.10;99.90;;;;;;4792634;29;20431;-83
2023/10/12 00:03:12;;;;;;;14.13;5.25;;;14.00;99.90;;;;;;4807025;29;20042;-83
2023/10/12 00:05:38;;;;;;;20.33;6.45;;;13.90;99.90;;;;;;4810841;29;20134;-83
2023/10/12 00:08:10;;;;;;;12.27;5.05;;;13.80;99.90;;;;;;4803761;29;20065;-83
2023/10/12 00:10:44;;;;;;;14.82;5.78;;;13.80;99.90;;;;;;4794584;29;20044;-84
2023/10/12 00:13:13;;;;;;;19.55;7.15;;;13.70;99.90;;;;;;4826620;29;20045;-83
2023/10/12 00:15:45;;;;;;;29.00;8.38;;;13.70;99.90;;;;;;4811049;29;20101;-83
2023/10/12 00:18:14;;;;;;;14.05;5.97;;;13.60;99.90;;;;;;4802236;29;20042;-84
2023/10/12 00:20:41;;;;;;;27.42;9.32;;;13.60;99.90;;;;;;4794352;29;20052;-83
2023/10/12 00:23:14;;;;;;;22.02;8.05;;;13.60;99.90;;;;;;4797148;29;20091;-84
2023/10/12 00:25:47;;;;;;;19.33;7.38;;;13.60;99.90;;;;;;4792642;29;20050;-83
2023/10/12 00:28:18;;;;;;;27.52;9.48;;;13.50;99.90;;;;;;4798784;29;20095;-84
2023/10/12 00:30:47;;;;;;;14.43;7.07;;;13.50;99.90;;;;;;4800487;29;20060;-84
2023/10/12 00:33:12;;;;;;;12.98;6.97;;;13.50;99.90;;;;;;4807837;29;20042;-84
2023/10/12 00:35:38;;;;;;;18.25;7.00;;;13.40;99.90;;;;;;4798689;29;20042;-83
2023/10/12 00:38:17;;;;;;;20.48;6.90;;;13.40;99.90;;;;;;4807045;29;20638;-83
2023/10/12 00:40:57;;;;;;;22.17;7.32;;;13.40;99.90;;;;;;4788445;29;20073;-83
2023/10/12 00:43:31;;;;;;;12.75;5.75;;;13.40;99.90;;;;;;4810628;29;20053;-83
2023/10/12 00:45:59;;;;;;;10.80;4.32;;;13.30;99.90;;;;;;4802796;29;20050;-84
2023/10/12 00:48:29;;;;;;;15.45;6.18;;;13.30;99.90;;;;;;4798872;29;20133;-83
2023/10/12 00:50:56;;;;;;;18.98;6.13;;;13.30;99.90;;;;;;4799813;29;20039;-83
2023/10/12 00:53:31;;;;;;;13.25;5.30;;;13.30;99.90;;;;;;4807435;29;20125;-83
2023/10/12 00:55:56;;;;;;;21.95;6.45;;;13.30;99.90;;;;;;4814073;29;20065;-83
2023/10/12 00:58:22;;;;;;;19.02;6.35;;;13.30;99.90;;;;;;4797964;29;20046;-83
2023/10/12 01:01:00;;;;;;;23.58;6.93;;;13.30;99.90;;;;;;4799654;29;20066;-83
2023/10/12 01:08:46;;;;;;;21.65;6.55;;;13.30;99.90;;;;;;4814511;29;20046;-83
2023/10/12 01:11:26;;;;;;;17.20;5.97;;;13.30;99.90;;;;;;4799106;29;20038;-83
2023/10/12 01:16:29;;;;;;;21.08;6.75;;;13.30;99.90;;;;;;4812810;29;20553;-84
2023/10/12 01:19:05;;;;;;;24.73;7.15;;;13.30;99.90;;;;;;4791194;29;20137;-83
2023/10/12 01:21:35;;;;;;;28.90;7.10;;;13.30;99.90;;;;;;4787249;29;20513;-84
2023/10/12 01:24:03;;;;;;;18.05;6.00;;;13.30;99.90;;;;;;4792010;29;20407;-84
2023/10/12 01:26:31;;;;;;;14.98;5.05;;;13.20;99.90;;;;;;4799643;29;20039;-84
2023/10/12 01:28:58;;;;;;;16.75;5.68;;;13.30;99.90;;;;;;4812691;29;20043;-84
2023/10/12 01:31:27;;;;;;;27.77;6.22;;;13.20;99.90;;;;;;4797403;29;20043;-83
2023/10/12 01:33:54;;;;;;;19.13;4.90;;;13.30;99.90;;;;;;4785891;29;20066;-83
2023/10/12 01:36:32;;;;;;;34.47;11.93;;;13.30;99.90;;;;;;4813397;29;20121;-84
2023/10/12 01:39:14;;;;;;;41.95;11.38;;;13.20;99.90;;;;;;4806377;29;20046;-84
2023/10/12 01:41:43;;;;;;;29.75;10.68;;;13.20;99.90;;;;;;4792000;29;20075;-84
2023/10/12 01:44:12;;;;;;;25.60;11.27;;;13.20;99.90;;;;;;4791899;29;20448;-84
2023/10/12 01:46:41;;;;;;;33.35;12.05;;;13.20;99.90;;;;;;4801288;29;20037;-84
2023/10/12 01:49:08;;;;;;;31.58;9.68;;;13.20;99.90;;;;;;4811574;29;20562;-84
2023/10/12 01:51:39;;;;;;;19.98;7.97;;;13.20;99.90;;;;;;4798408;29;20068;-84
2023/10/12 01:54:05;;;;;;;30.15;8.05;;;13.20;99.90;;;;;;4794805;29;20058;-84
2023/10/12 01:56:37;;;;;;;40.78;9.63;;;13.10;99.90;;;;;;4798430;29;20510;-84
2023/10/12 01:59:07;;;;;;;32.35;9.02;;;13.10;99.90;;;;;;4806810;29;20050;-84
2023/10/12 02:01:41;;;;;;;27.92;7.10;;;13.10;99.90;;;;;;4798283;29;20049;-84
2023/10/12 02:04:07;;;;;;;30.52;8.18;;;13.10;99.90;;;;;;4809981;29;20054;-84
2023/10/12 02:06:32;;;;;;;28.10;8.27;;;13.10;99.90;;;;;;4792606;29;20417;-84
2023/10/12 02:09:08;;;;;;;23.52;6.65;;;13.10;99.90;;;;;;4785666;29;20035;-84
2023/10/12 02:11:43;;;;;;;36.45;8.10;;;13.10;99.90;;;;;;4813294;29;20058;-83
2023/10/12 02:14:11;;;;;;;40.00;8.45;;;13.10;99.90;;;;;;4817755;29;20422;-84
2023/10/12 02:16:52;;;;;;;29.95;8.13;;;13.10;99.90;;;;;;4816740;29;20050;-84
2023/10/12 02:19:29;;;;;;;38.45;8.25;;;13.10;99.90;;;;;;4811559;29;20050;-84
2023/10/12 02:22:00;;;;;;;15.48;5.05;;;13.10;99.90;;;;;;4799803;29;20410;-83
2023/10/12 02:24:26;;;;;;;32.35;7.68;;;13.10;99.90;;;;;;4801440;29;20057;-83
2023/10/12 02:26:52;;;;;;;18.38;5.35;;;13.00;99.90;;;;;;4802021;29;20042;-83
2023/10/12 02:29:18;;;;;;;23.35;6.00;;;13.00;99.90;;;;;;4796202;29;20117;-84
2023/10/12 02:34:16;;;;;;;33.63;6.63;;;12.90;99.90;;;;;;4809932;29;20054;-83
2023/10/12 02:37:00;;;;;;;32.20;7.93;;;12.90;99.90;;;;;;4794514;29;20071;-83
2023/10/12 02:39:27;;;;;;;23.20;5.90;;;12.90;99.90;;;;;;4800443;29;20053;-83
2023/10/12 02:42:10;;;;;;;40.55;8.20;;;12.90;99.90;;;;;;4803446;29;20035;-83
2023/10/12 02:44:42;;;;;;;30.25;6.60;;;12.90;99.90;;;;;;4793976;29;20553;-83
2023/10/12 02:47:23;;;;;;;44.63;7.90;;;12.90;99.90;;;;;;4794731;29;20080;-83
2023/10/12 02:50:00;;;;;;;25.95;6.50;;;12.90;99.90;;;;;;4785704;29;20046;-83
2023/10/12 02:52:31;;;;;;;45.42;9.10;;;13.00;99.90;;;;;;4803274;29;20566;-83
2023/10/12 02:54:58;;;;;;;24.20;7.53;;;12.90;99.90;;;;;;4801177;29;20042;-83
2023/10/12 02:57:31;;;;;;;41.88;8.65;;;13.00;99.90;;;;;;4796521;29;20046;-83
2023/10/12 02:59:57;;;;;;;21.92;6.53;;;13.00;99.90;;;;;;4811198;29;20056;-83
2023/10/12 03:02:32;;;;;;;29.38;6.82;;;12.90;99.90;;;;;;4803497;29;20046;-83
2023/10/12 03:05:06;;;;;;;30.85;7.40;;;12.90;99.90;;;;;;4822723;29;20074;-83
2023/10/12 03:07:39;;;;;;;21.95;6.47;;;12.90;99.90;;;;;;4801646;29;20090;-83
2023/10/12 03:10:07;;;;;;;22.77;6.65;;;12.90;99.90;;;;;;4793675;29;20089;-83
2023/10/12 03:12:36;;;;;;;36.42;7.32;;;12.90;99.90;;;;;;4793675;29;20039;-83
2023/10/12 03:15:12;;;;;;;25.23;6.35;;;12.90;99.90;;;;;;4793707;29;20045;-83
2023/10/12 03:17:45;;;;;;;29.27;6.43;;;12.90;99.90;;;;;;4794166;29;20068;-83
2023/10/12 03:20:22;;;;;;;33.40;7.55;;;12.90;99.90;;;;;;4793090;29;20046;-83
2023/10/12 03:22:52;;;;;;;43.42;9.38;;;12.90;99.90;;;;;;4808233;29;20050;-83
2023/10/12 03:25:19;;;;;;;28.63;6.60;;;12.90;99.90;;;;;;4790303;29;20489;-83
2023/10/12 03:27:53;;;;;;;33.83;7.22;;;12.90;99.90;;;;;;4796655;29;20455;-83
2023/10/12 03:30:25;;;;;;;39.55;9.05;;;12.90;99.90;;;;;;4793405;29;20053;-83
2023/10/12 03:32:52;;;;;;;25.75;6.93;;;12.90;99.90;;;;;;4806648;23;20417;-78
2023/10/12 03:35:26;;;;;;;24.80;6.10;;;12.90;99.90;;;;;;4807341;29;20043;-78
2023/10/12 03:38:00;;;;;;;21.33;5.90;;;12.80;99.90;;;;;;4815242;29;20051;-78
2023/10/12 03:43:20;;;;;;;29.50;7.60;;;12.90;99.90;;;;;;4815891;29;20568;-77
2023/10/12 03:46:00;;;;;;;26.65;7.50;;;12.80;99.90;;;;;;4789858;29;20088;-78
2023/10/12 03:48:37;;;;;;;31.67;7.85;;;12.80;99.90;;;;;;4796236;29;20042;-78
2023/10/12 03:53:56;;;;;;;19.48;6.32;;;12.80;99.90;;;;;;4811984;29;20050;-78
2023/10/12 03:56:23;;;;;;;30.95;7.45;;;12.80;99.90;;;;;;4813641;29;20413;-77
2023/10/12 03:58:58;;;;;;;29.30;7.97;;;12.80;99.90;;;;;;4815630;29;20050;-78
2023/10/12 04:01:39;;;;;;;19.75;5.95;;;12.80;99.90;;;;;;4825473;29;20501;-77
2023/10/12 04:04:21;;;;;;;34.80;8.90;;;12.80;99.90;;;;;;4792797;29;20054;-77
2023/10/12 04:09:43;;;;;;;27.60;7.75;;;12.80;99.90;;;;;;4825657;29;20754;-77
2023/10/12 04:12:19;;;;;;;34.50;9.63;;;12.80;99.90;;;;;;4814833;29;20035;-77
2023/10/12 04:14:52;;;;;;;33.38;8.65;;;12.80;99.90;;;;;;4815417;29;20050;-77
2023/10/12 04:25:13;;;;;;;21.58;7.47;;;12.80;99.90;;;;;;4797765;29;20062;-77
2023/10/12 04:27:50;;;;;;;26.38;7.22;;;12.80;99.90;;;;;;4816898;29;20098;-77
2023/10/12 04:30:42;;;;;;;30.48;8.70;;;12.80;99.90;;;;;;4818671;29;20042;-77
2023/10/12 04:38:27;;;;;;;25.77;8.05;;;12.80;99.90;;;;;;4812904;29;20144;-77
2023/10/12 04:43:38;;;;;;;30.48;8.50;;;12.80;99.90;;;;;;4801149;29;20050;-77
2023/10/12 04:48:41;;;;;;;38.85;10.65;;;12.80;99.90;;;;;;4802455;29;20112;-77
2023/10/12 04:51:07;;;;;;;21.65;8.63;;;12.80;99.90;;;;;;4833680;29;20046;-77
2023/10/12 04:56:19;;;;;;;20.70;8.23;;;12.80;99.90;;;;;;4798956;29;20145;-77
2023/10/12 04:58:56;;;;;;;22.13;8.68;;;12.80;99.90;;;;;;4787767;29;20522;-77
2023/10/12 05:01:51;;;;;;;26.88;9.00;;;12.80;99.90;;;;;;4806116;29;20117;-77
2023/10/12 05:04:35;;;;;;;28.40;9.13;;;12.80;99.90;;;;;;4804539;29;20054;-77
2023/10/12 05:09:48;;;;;;;33.45;10.82;;;12.70;99.90;;;;;;4803096;29;20061;-78
2023/10/12 05:12:17;;;;;;;27.80;10.27;;;12.70;99.90;;;;;;4781839;29;20043;-78
2023/10/12 05:14:44;;;;;;;30.60;11.88;;;12.70;99.90;;;;;;4793118;29;20042;-78
2023/10/12 05:17:09;;;;;;;36.15;11.50;;;12.70;99.90;;;;;;4782580;29;20046;-79
2023/10/12 05:19:35;;;;;;;39.75;12.25;;;12.70;99.90;;;;;;4815123;29;20129;-79
2023/10/12 05:22:01;;;;;;;45.80;13.85;;;12.70;99.90;;;;;;4820483;29;20042;-79
2023/10/12 05:24:27;;;;;;;36.42;12.02;;;12.70;99.90;;;;;;4788408;29;20050;-79
2023/10/12 05:27:10;;;;;;;38.53;12.18;;;12.70;99.90;;;;;;4793666;29;20057;-78
2023/10/12 05:29:38;;;;;;;38.65;13.18;;;12.70;99.90;;;;;;4802019;29;20508;-77
2023/10/12 05:37:16;;;;;;;44.15;14.27;;;12.70;99.90;;;;;;4805000;29;20448;-77
2023/10/12 05:39:50;;;;;;;59.97;14.95;;;12.70;99.90;;;;;;4785844;29;20433;-77
2023/10/12 05:42:20;;;;;;;33.67;13.80;;;12.70;99.90;;;;;;4802421;29;20046;-77
2023/10/12 05:44:48;;;;;;;34.90;13.45;;;12.80;99.90;;;;;;4776782;29;20047;-77
2023/10/12 05:47:15;;;;;;;63.55;16.15;;;12.70;99.90;;;;;;4821631;29;20378;-77
2023/10/12 05:49:41;;;;;;;53.45;14.80;;;12.70;99.90;;;;;;4804865;29;20049;-76
2023/10/12 05:52:11;;;;;;;41.72;13.35;;;12.80;99.90;;;;;;4807125;29;20034;-77
2023/10/12 05:54:40;;;;;;;43.28;14.05;;;12.80;99.90;;;;;;4800378;29;20282;-77
2023/10/12 05:57:25;;;;;;;86.05;17.52;;;12.70;99.90;;;;;;4809646;29;20498;-77
2023/10/12 05:59:50;;;;;;;40.80;13.38;;;12.60;99.90;;;;;;4780808;29;20046;-77
2023/10/12 06:02:19;;;;;;;52.55;14.38;;;12.60;99.90;;;;;;4797019;29;20129;-78
2023/10/12 06:04:45;;;;;;;49.75;15.20;;;12.60;99.90;;;;;;4800545;29;20117;-77
2023/10/12 06:07:11;;;;;;;48.00;16.80;;;12.60;99.90;;;;;;4810591;29;20490;-77
2023/10/12 06:09:37;;;;;;;60.03;18.08;;;12.60;99.90;;;;;;4807534;29;20046;-77
2023/10/12 06:12:07;;;;;;;39.75;16.60;;;12.60;99.90;;;;;;4791387;29;20114;-77
2023/10/12 06:14:34;;;;;;;52.33;17.35;;;12.60;99.90;;;;;;4815925;29;20046;-77
2023/10/12 06:17:05;;;;;;;47.28;16.58;;;12.60;99.90;;;;;;4786375;29;20050;-77
2023/10/12 06:19:34;;;;;;;45.25;16.73;;;12.60;99.90;;;;;;4806136;29;20081;-77
2023/10/12 06:22:13;;;;;;;41.20;14.45;;;12.60;99.90;;;;;;4806150;29;20046;-77
2023/10/12 06:24:41;;;;;;;61.55;18.55;;;12.60;99.90;;;;;;4806050;29;20049;-77
2023/10/12 06:29:49;;;;;;;52.92;17.48;;;12.70;99.90;;;;;;4806721;29;20538;-77
2023/10/12 06:32:31;;;;;;;50.80;16.70;;;12.70;99.90;;;;;;4806081;29;20074;-77
2023/10/12 06:43:52;;;;;;;48.42;15.68;;;12.70;99.90;;;;;;4806038;29;20066;-77
2023/10/12 06:48:43;;;;;;;61.95;17.42;;;12.80;99.90;;;;;;4805714;29;20410;-77
2023/10/12 06:51:15;;;;;;;42.35;15.60;;;12.80;99.90;;;;;;4806136;29;20050;-77
2023/10/12 06:54:05;;;;;;;49.30;16.60;;;12.80;99.90;;;;;;4806367;29;20106;-77
2023/10/12 06:56:31;;;;;;;33.58;14.70;;;12.80;99.90;;;;;;4806040;29;20371;-77
2023/10/12 07:04:15;;;;;;;78.60;19.23;;;12.90;99.90;;;;;;4809142;29;20078;-77
2023/10/12 07:06:48;;;;;;;46.88;15.55;;;12.90;99.90;;;;;;4808919;29;20050;-77
2023/10/12 07:09:13;;;;;;;100.10;21.58;;;12.90;99.90;;;;;;4809734;29;20398;-77
2023/10/12 07:11:39;;;;;;;49.30;15.30;;;12.90;99.90;;;;;;4809200;29;20043;-78
2023/10/12 07:14:05;;;;;;;50.58;15.68;;;12.90;99.90;;;;;;4809236;29;20129;-77
2023/10/12 07:16:40;;;;;;;59.28;17.02;;;13.00;99.90;;;;;;4793699;29;20130;-77
2023/10/12 07:19:06;;;;;;;92.43;18.77;;;13.00;99.90;;;;;;4793945;29;20049;-77
2023/10/12 07:21:32;;;;;;;37.38;14.70;;;13.00;99.90;;;;;;4823862;29;20065;-77
2023/10/12 07:23:57;;;;;;;45.20;16.33;;;13.10;99.90;;;;;;4823868;29;20489;-77
2023/10/12 07:26:30;;;;;;;71.47;18.23;;;13.10;99.90;;;;;;4793697;29;20114;-77
2023/10/12 07:28:56;;;;;;;;;;;13.20;99.90;;;;;;4794173;29;20121;-77
2023/10/12 07:31:41;;;;;;;36.35;15.55;;;13.20;99.90;;;;;;4808769;29;20387;-77
2023/10/12 07:34:13;;;;;;;42.83;16.80;;;13.30;99.90;;;;;;4823781;29;20088;-77
2023/10/12 07:39:42;;;;;;;24.73;12.77;;;13.50;99.90;;;;;;4808591;29;20053;-77
2023/10/12 07:42:01;;;;;;;53.47;17.35;;;13.60;99.90;;;;;;4806728;29;20058;-77
2023/10/12 07:44:28;;;;;;;30.08;12.75;;;13.70;99.90;;;;;;4823412;29;20093;-77
2023/10/12 07:46:58;;;;;;;89.10;19.83;;;13.90;99.90;;;;;;4808244;29;20042;-77
2023/10/12 07:57:19;;;;;;;26.05;10.32;;;14.30;99.90;;;;;;4808454;29;20557;-77
2023/10/12 08:05:56;;;;;;;30.48;10.45;;;14.40;99.90;;;;;;4807857;29;20058;-77
2023/10/12 08:21:31;;;;;;;23.67;6.72;;;14.40;99.90;;;;;;4807778;29;20506;-77
2023/10/12 08:24:10;;;;;;;27.92;8.40;;;14.40;99.90;;;;;;4807652;29;20046;-77
2023/10/12 08:31:48;;;;;;;16.27;4.80;;;14.30;99.90;;;;;;4807452;29;20060;-77
2023/10/12 08:39:49;;;;;;;18.45;6.68;;;14.30;99.90;;;;;;4807830;29;20050;-77
2023/10/12 08:44:54;;;;;;;23.40;5.95;;;14.30;99.90;;;;;;4807280;29;20058;-77
2023/10/12 08:47:44;;;;;;;25.10;6.20;;;14.30;99.90;;;;;;4807397;29;20043;-77
2023/10/12 08:52:50;;;;;;;13.32;4.32;;;14.30;99.90;;;;;;4807546;29;20065;-77
2023/10/12 08:55:24;;;;;;;18.10;4.85;;;14.30;99.90;;;;;;4807382;29;20131;-77
2023/10/12 08:58:03;;;;;;;19.60;5.22;;;14.30;99.90;;;;;;4792251;29;20106;-77
2023/10/12 09:03:13;;;;;;;17.58;4.95;;;14.30;99.90;;;;;;4807347;29;20058;-77
2023/10/12 09:05:40;;;;;;;24.73;6.32;;;14.30;99.90;;;;;;4807071;29;20410;-77
2023/10/12 09:08:08;;;;;;;16.70;4.97;;;14.40;99.90;;;;;;4807164;29;20050;-77
2023/10/12 09:10:54;;;;;;;24.58;5.38;;;14.40;99.90;;;;;;4807321;29;20083;-77
2023/10/12 09:13:20;;;;;;;17.35;4.97;;;14.40;99.90;;;;;;4806918;29;20121;-77
2023/10/12 09:15:47;;;;;;;16.23;4.55;;;14.40;99.90;;;;;;4806972;29;20125;-77
2023/10/12 09:18:16;;;;;;;14.95;4.15;;;14.40;99.90;;;;;;4807091;29;20082;-77
2023/10/12 09:20:58;;;;;;;18.25;5.13;;;14.50;99.90;;;;;;4806552;29;20046;-77
2023/10/12 09:29:07;;;;;;;18.17;6.20;;;14.60;99.90;;;;;;4806833;29;20053;-77
2023/10/12 09:36:43;;;;;;;21.20;6.20;;;14.60;99.90;;;;;;4806701;29;20540;-77
2023/10/12 09:39:13;;;;;;;;;;;14.70;99.90;;;;;;4807280;29;20043;-77
2023/10/12 09:41:40;;;;;;;21.35;6.47;;;14.70;99.90;;;;;;4807181;29;20350;-77
2023/10/12 09:44:07;;;;;;;17.70;6.50;;;14.80;99.90;;;;;;4791965;29;20042;-77
2023/10/12 09:46:36;;;;;;;16.02;5.53;;;14.90;99.90;;;;;;4806694;29;20138;-77
2023/10/12 09:49:06;;;;;;;11.85;4.72;;;15.00;99.90;;;;;;4806819;29;20035;-77
2023/10/12 09:51:45;;;;;;;15.43;5.43;;;15.00;99.90;;;;;;4806934;29;20053;-77
2023/10/12 09:54:46;;;;;;;16.35;5.78;;;15.10;99.90;;;;;;4791735;29;20125;-77
2023/10/12 09:57:27;;;;;;;12.82;3.90;;;15.20;99.90;;;;;;4821773;29;20066;-77
2023/10/12 09:59:59;;;;;;;18.60;5.63;;;15.20;99.90;;;;;;4807201;29;20052;-77
2023/10/12 10:02:28;;;;;;;19.23;5.85;;;15.10;99.90;;;;;;4806735;29;20038;-77
2023/10/12 10:05:11;;;;;;;17.27;4.82;;;15.20;99.90;;;;;;4806440;29;20054;-77
2023/10/12 10:07:52;;;;;;;15.80;4.28;;;15.20;99.90;;;;;;4806853;29;20137;-77
2023/10/12 10:10:30;;;;;;;13.75;4.57;;;15.30;99.90;;;;;;4807125;29;20445;-77
2023/10/12 10:13:10;;;;;;;16.38;4.60;;;15.20;99.90;;;;;;4806756;29;20349;-77
2023/10/12 10:15:55;;;;;;;12.80;3.53;;;15.30;99.90;;;;;;4806541;29;20078;-77
2023/10/12 10:18:25;;;;;;;14.32;3.55;;;15.40;99.90;;;;;;4791686;29;20545;-77
2023/10/12 10:20:56;;;;;;;14.50;3.65;;;15.40;99.90;;;;;;4806870;29;20104;-77
2023/10/12 10:23:23;;;;;;;11.95;3.47;;;15.50;99.90;;;;;;4806793;29;20517;-77
2023/10/12 10:26:30;;;;;;;11.90;3.42;;;15.50;99.90;;;;;;4806174;29;20057;-77
2023/10/12 10:29:07;;;;;;;13.80;3.88;;;15.50;99.90;;;;;;4806036;29;20065;-77
2023/10/12 10:36:50;;;;;;;14.32;3.88;;;15.50;99.90;;;;;;4824114;29;20062;-77
2023/10/12 10:44:13;;;;;;;9.90;3.15;;;15.40;99.90;;;;;;4809783;29;20050;-77
2023/10/12 10:46:44;;;;;;;18.85;4.60;;;15.30;99.90;;;;;;4794433;29;20043;-77
2023/10/12 16:52:39;;;;;;;28.90;21.67;;;12.20;99.90;;;;;;2191877;23;20028;-82
2023/10/12 17:09:26;;;;;;;29.38;22.67;;;12.30;99.90;;;;;;5336874;23;20404;-81
2023/10/12 17:11:51;;;;;;;32.78;24.38;;;12.30;99.90;;;;;;4829695;29;20511;-81
2023/10/12 17:14:18;;;;;;;33.40;24.85;;;12.30;99.90;;;;;;4829159;29;20125;-82
2023/10/12 17:16:45;;;;;;;35.63;25.58;;;12.30;99.90;;;;;;4812119;29;20042;-81
2023/10/12 17:19:11;;;;;;;38.63;27.73;;;12.30;99.90;;;;;;4816174;29;20054;-81
2023/10/12 17:21:37;;;;;;;38.75;30.08;;;12.30;99.90;;;;;;4791215;29;20081;-82
2023/10/12 17:24:05;;;;;;;43.00;31.27;;;12.30;99.90;;;;;;4806394;29;20078;-81
2023/10/12 17:26:32;;;;;;;49.38;33.88;;;12.30;99.90;;;;;;4797590;29;20157;-81
2023/10/12 17:28:58;;;;;;;46.65;32.50;;;12.30;99.90;;;;;;4789872;29;20557;-82
2023/10/12 17:31:28;;;;;;;44.15;35.10;;;12.30;99.90;;;;;;4811782;29;20378;-82
2023/10/12 17:33:55;;;;;;;46.55;34.40;;;12.30;99.90;;;;;;4809070;29;20042;-82
2023/10/12 17:36:23;;;;;;;55.42;36.58;;;12.40;99.90;;;;;;4802894;29;20049;-82
2023/10/12 17:38:52;;;;;;;58.42;40.03;;;12.30;99.90;;;;;;4786342;29;20421;-82
2023/10/12 17:41:20;;;;;;;97.50;46.83;;;12.30;99.90;;;;;;4803781;29;20521;-81
2023/10/12 17:43:51;;;;;;;62.60;40.30;;;12.40;99.90;;;;;;4790614;29;20046;-81
2023/10/12 17:46:21;;;;;;;99.60;49.10;;;12.30;99.90;;;;;;4817024;29;20510;-81
2023/10/12 17:48:53;;;;;;;77.22;46.00;;;12.30;99.90;;;;;;4796296;29;20039;-80
2023/10/12 17:51:23;;;;;;;90.10;49.17;;;12.30;99.90;;;;;;4809027;29;20125;-80
2023/10/12 17:53:49;;;;;;;59.95;42.38;;;12.40;99.90;;;;;;4793216;29;20042;-80
2023/10/12 17:56:16;;;;;;;72.20;47.58;;;12.40;99.90;;;;;;4804029;29;20046;-81
2023/10/12 17:58:45;;;;;;;55.28;41.00;;;12.40;99.90;;;;;;4804716;29;20054;-81
2023/10/12 18:01:12;;;;;;;69.78;44.95;;;12.40;99.90;;;;;;4808133;29;20489;-81
2023/10/12 18:03:40;;;;;;;129.50;59.00;;;12.40;99.90;;;;;;4806494;29;20470;-80
2023/10/12 18:06:09;;;;;;;155.82;59.72;;;12.40;99.90;;;;;;4805305;29;20034;-80
2023/10/12 18:08:36;;;;;;;148.93;59.40;;;12.40;99.90;;;;;;4803914;29;20046;-80
2023/10/12 18:11:08;;;;;;;88.20;52.95;;;12.40;99.90;;;;;;4807606;29;20042;-80
2023/10/12 18:13:34;;;;;;;84.70;51.90;;;12.40;99.90;;;;;;4791737;29;20050;-81
2023/10/12 18:16:03;;;;;;;94.65;54.97;;;12.50;99.90;;;;;;4804118;29;20102;-80
2023/10/12 18:18:29;;;;;;;118.55;60.55;;;12.50;99.90;;;;;;4795114;29;20069;-80
2023/10/12 18:20:58;;;;;;;92.13;57.45;;;12.50;99.90;;;;;;4789362;29;20042;-80
2023/10/12 18:23:25;;;;;;;99.90;59.80;;;12.50;99.90;;;;;;4805897;29;20050;-80
2023/10/12 18:25:51;;;;;;;97.32;62.03;;;12.60;99.90;;;;;;4820946;29;20453;-80
2023/10/12 18:28:17;;;;;;;121.18;62.60;;;12.50;99.90;;;;;;4793237;29;20498;-80
2023/10/12 18:30:59;;;;;;;113.22;67.18;;;12.50;99.90;;;;;;4790026;29;20081;-80
2023/10/12 18:33:25;;;;;;;165.75;76.45;;;12.60;99.90;;;;;;4792605;29;20043;-80
2023/10/12 18:35:51;;;;;;;192.40;75.15;;;12.50;99.90;;;;;;4790127;29;20046;-80
2023/10/12 18:38:17;;;;;;;125.97;65.13;;;12.60;99.90;;;;;;4789496;29;20050;-80
2023/10/12 18:40:42;;;;;;;222.23;78.68;;;12.60;99.90;;;;;;4792637;29;20064;-80
2023/10/12 18:43:12;;;;;;;167.85;71.18;;;12.60;99.90;;;;;;4810407;29;20340;-81
2023/10/12 18:45:49;;;;;;;120.00;66.70;;;12.60;99.90;;;;;;4798972;29;20046;-80
2023/10/12 18:48:14;;;;;;;138.02;70.88;;;12.70;99.90;;;;;;4792350;29;20099;-80
2023/10/12 18:50:40;;;;;;;147.88;72.45;;;12.60;99.90;;;;;;4802665;29;20137;-80
2023/10/12 18:53:05;;;;;;;201.07;75.03;;;12.70;99.90;;;;;;4800885;29;20118;-80
2023/10/12 18:55:33;;;;;;;201.88;72.28;;;12.70;99.90;;;;;;4801689;29;20051;-80
2023/10/12 18:57:58;;;;;;;137.15;64.00;;;12.70;99.90;;;;;;4818869;29;20057;-81
2023/10/12 19:00:24;;;;;;;216.07;73.50;;;12.70;99.90;;;;;;4793213;29;20070;-81
2023/10/12 19:02:50;;;;;;;213.52;76.78;;;12.70;99.90;;;;;;4800512;29;20053;-81
2023/10/12 19:05:17;;;;;;;125.60;63.45;;;12.80;99.90;;;;;;4800131;29;20049;-81
2023/10/12 19:07:43;;;;;;;96.30;57.35;;;12.80;99.90;;;;;;4808362;29;20054;-81
2023/10/12 19:10:09;;;;;;;105.47;59.20;;;12.80;99.90;;;;;;4792537;29;20054;-81
2023/10/12 19:12:35;;;;;;;166.00;66.03;;;12.80;99.90;;;;;;4813271;29;20034;-81
2023/10/12 19:15:04;;;;;;;132.52;58.85;;;12.80;99.90;;;;;;4786733;29;20047;-81
2023/10/12 19:17:31;;;;;;;182.30;69.15;;;12.80;99.90;;;;;;4816130;29;20570;-81
2023/10/12 19:19:56;;;;;;;133.75;59.30;;;12.90;99.90;;;;;;4789798;29;20501;-80
2023/10/12 19:22:22;;;;;;;243.73;69.07;;;12.80;99.90;;;;;;4789387;29;20129;-81
2023/10/12 19:24:51;;;;;;;137.02;59.30;;;12.90;99.90;;;;;;4814249;29;20056;-81
2023/10/12 19:27:17;;;;;;;175.50;61.85;;;12.90;99.90;;;;;;4813059;29;20124;-81
2023/10/12 19:29:45;;;;;;;185.15;59.00;;;12.90;99.90;;;;;;4794253;29;20501;-81
2023/10/12 19:32:10;;;;;;;138.85;56.25;;;12.90;99.90;;;;;;4814181;29;20082;-81
2023/10/12 19:34:36;;;;;;;121.22;51.50;;;12.90;99.90;;;;;;4818091;29;20042;-81
2023/10/12 19:37:02;;;;;;;167.48;57.10;;;12.90;99.90;;;;;;4804195;29;20047;-80
2023/10/12 19:39:29;;;;;;;161.10;54.58;;;13.00;99.90;;;;;;4798002;29;20046;-80
2023/10/12 19:41:56;;;;;;;152.10;56.45;;;13.00;99.90;;;;;;4792582;29;20099;-81
2023/10/12 19:44:22;;;;;;;199.38;55.05;;;13.00;99.90;;;;;;4807529;29;20046;-81
2023/10/12 19:46:48;;;;;;;110.20;49.58;;;13.00;99.90;;;;;;4799240;29;20046;-80
2023/10/12 19:49:15;;;;;;;237.18;60.53;;;13.00;99.90;;;;;;4785973;29;20406;-80
2023/10/12 19:51:42;;;;;;;187.15;57.58;;;13.00;99.90;;;;;;4789286;29;20490;-80
2023/10/12 19:54:07;;;;;;;174.95;56.30;;;13.00;99.90;;;;;;4792530;29;20043;-81
2023/10/12 19:56:33;;;;;;;91.97;46.83;;;13.10;99.90;;;;;;4810820;29;20102;-80
2023/10/12 19:59:01;;;;;;;140.50;52.55;;;13.10;99.90;;;;;;4806012;29;20046;-80
2023/10/12 20:01:27;;;;;;;157.20;56.33;;;13.10;99.90;;;;;;4794263;29;20211;-80
2023/10/12 20:03:55;;;;;;;165.18;57.00;;;13.10;99.90;;;;;;4808792;29;20350;-81
2023/10/12 20:06:20;;;;;;;176.18;58.55;;;13.10;99.90;;;;;;4789583;29;20047;-81
2023/10/12 20:08:47;;;;;;;201.27;57.58;;;13.10;99.90;;;;;;4806118;29;20050;-80
2023/10/12 20:11:14;;;;;;;158.75;52.72;;;13.10;99.90;;;;;;4807126;29;20494;-81
2023/10/12 20:13:41;;;;;;;200.70;59.20;;;13.20;99.90;;;;;;4791104;29;20129;-81
2023/10/12 20:16:11;;;;;;;156.82;56.50;;;13.20;99.90;;;;;;4814101;29;20050;-81
2023/10/12 20:18:38;;;;;;;197.02;58.13;;;13.20;99.90;;;;;;4791599;29;20047;-81
2023/10/12 20:21:04;;;;;;;164.73;59.35;;;13.30;99.90;;;;;;4828611;29;20390;-80
2023/10/12 20:23:30;;;;;;;247.68;61.90;;;13.30;99.90;;;;;;4803153;29;20038;-80
2023/10/12 20:25:58;;;;;;;225.50;61.67;;;13.30;99.90;;;;;;4792878;29;20053;-80
2023/10/12 20:28:24;;;;;;;203.65;62.35;;;13.30;99.90;;;;;;4783073;29;20091;-80
2023/10/12 20:30:51;;;;;;;262.55;62.15;;;13.30;99.90;;;;;;4797103;29;20054;-81
2023/10/12 20:33:19;;;;;;;222.23;61.00;;;13.40;99.90;;;;;;4805854;29;20038;-81
2023/10/12 20:35:45;;;;;;;254.77;65.47;;;13.40;99.90;;;;;;4806573;29;20053;-80
2023/10/12 20:38:15;;;;;;;242.00;65.20;;;13.40;99.90;;;;;;4803170;29;20121;-80
2023/10/12 20:40:43;;;;;;;251.07;68.95;;;13.40;99.90;;;;;;4790978;29;20069;-80
2023/10/12 20:43:11;;;;;;;244.60;69.63;;;13.40;99.90;;;;;;4817152;29;20054;-81
2023/10/12 20:45:40;;;;;;;240.55;62.78;;;13.40;99.90;;;;;;4793394;29;20058;-81
2023/10/12 20:48:10;;;;;;;324.67;70.47;;;13.50;99.90;;;;;;4806966;29;20045;-81
2023/10/12 20:50:37;;;;;;;264.10;71.03;;;13.50;99.90;;;;;;4795738;29;20134;-80
2023/10/12 20:53:05;;;;;;;253.90;72.40;;;13.50;99.90;;;;;;4799848;29;20034;-81
2023/10/12 20:55:35;;;;;;;262.42;69.97;;;13.50;99.90;;;;;;4819938;29;20130;-82
2023/10/12 20:58:01;;;;;;;192.57;65.97;;;13.50;99.90;;;;;;4806244;29;20046;-82
2023/10/12 21:00:28;;;;;;;235.52;67.28;;;13.50;99.90;;;;;;4797692;29;20042;-82
2023/10/12 21:02:57;;;;;;;294.95;77.80;;;13.60;99.90;;;;;;4811283;29;20043;-82
2023/10/12 21:05:26;;;;;;;409.55;87.28;;;13.60;99.90;;;;;;4789951;29;20030;-84
2023/10/12 21:07:53;;;;;;;179.82;66.47;;;13.70;99.90;;;;;;4803928;29;20046;-81
2023/10/12 21:10:19;;;;;;;278.45;80.10;;;13.70;99.90;;;;;;4808633;29;20543;-81
2023/10/12 21:12:46;;;;;;;188.60;71.88;;;13.70;99.90;;;;;;4814508;29;20129;-81
2023/10/12 21:15:19;;;;;;;333.83;80.10;;;13.70;99.90;;;;;;4797590;29;20387;-80
2023/10/12 21:17:58;;;;;;;287.77;80.13;;;13.80;99.90;;;;;;4813057;29;20076;-80
2023/10/12 21:20:37;;;;;;;285.10;78.97;;;13.80;99.90;;;;;;4796350;29;20050;-81